createdAt,value
2023-05-10T00:00:09.220Z,0.00
2023-05-10T00:01:09.508Z,0.00
2023-05-10T00:02:09.851Z,0.00
2023-05-10T00:03:10.228Z,0.00
2023-05-10T00:04:10.400Z,0.00
2023-05-10T00:05:10.704Z,0.00
2023-05-10T00:06:11.049Z,0.00
2023-05-10T00:07:11.250Z,0.00
2023-05-10T00:08:11.517Z,0.00
2023-05-10T00:09:11.786Z,0.00
2023-05-10T00:10:12.055Z,0.00
2023-05-10T00:11:12.344Z,0.00
2023-05-10T00:12:12.717Z,0.00
2023-05-10T00:13:13.062Z,0.00
2023-05-10T00:14:13.266Z,0.00
2023-05-10T00:15:13.540Z,0.00
2023-05-10T00:16:13.824Z,0.00
2023-05-10T00:17:14.102Z,0.00
2023-05-10T00:18:14.404Z,0.00
2023-05-10T00:19:14.681Z,1.00
2023-05-10T00:20:15.174Z,1.00
2023-05-10T00:21:15.206Z,0.00
2023-05-10T00:22:15.475Z,0.00
2023-05-10T00:23:15.817Z,0.00
2023-05-10T00:24:16.035Z,0.00
2023-05-10T00:25:16.424Z,0.00
2023-05-10T00:26:16.627Z,0.00
2023-05-10T00:27:16.954Z,0.00
2023-05-10T00:28:17.161Z,0.00
2023-05-10T00:29:17.444Z,0.00
2023-05-10T00:30:17.991Z,0.00
2023-05-10T00:31:18.019Z,0.00
2023-05-10T00:32:18.375Z,0.00
2023-05-10T00:33:18.649Z,0.00
2023-05-10T00:34:18.882Z,0.00
2023-05-10T00:35:19.171Z,0.00
2023-05-10T00:36:19.467Z,0.00
2023-05-10T00:37:19.725Z,0.00
2023-05-10T00:38:20.022Z,0.00
2023-05-10T00:39:20.328Z,0.00
2023-05-10T00:40:20.628Z,0.00
2023-05-10T00:41:20.840Z,0.00
2023-05-10T00:42:21.153Z,0.00
2023-05-10T00:43:21.502Z,0.00
2023-05-10T00:44:21.754Z,0.00
2023-05-10T00:45:22.010Z,0.00
2023-05-10T00:46:22.318Z,0.00
2023-05-10T00:47:22.660Z,0.00
2023-05-10T00:48:22.926Z,0.00
2023-05-10T00:49:23.214Z,0.00
2023-05-10T00:50:23.575Z,0.00
2023-05-10T00:51:23.802Z,0.00
2023-05-10T00:52:24.129Z,0.00
2023-05-10T00:53:24.566Z,0.00
2023-05-10T00:54:24.629Z,0.00
2023-05-10T00:55:24.919Z,0.00
2023-05-10T00:56:25.229Z,0.00
2023-05-10T00:57:25.524Z,0.00
2023-05-10T00:58:25.797Z,0.00
2023-05-10T00:59:26.088Z,0.00
2023-05-10T01:00:26.382Z,0.00
2023-05-10T01:01:26.772Z,0.00
2023-05-10T01:02:27.027Z,0.00
2023-05-10T01:03:27.199Z,0.00
2023-05-10T01:04:27.557Z,0.00
2023-05-10T01:05:27.728Z,0.00
2023-05-10T01:06:27.991Z,0.00
2023-05-10T01:07:28.280Z,0.00
2023-05-10T01:13:33.162Z,0.00
2023-05-10T01:14:33.389Z,0.00
2023-05-10T01:15:33.660Z,0.00
2023-05-10T01:16:34.053Z,0.00
2023-05-10T01:17:34.333Z,0.00
2023-05-10T01:18:34.610Z,0.00
2023-05-10T01:19:34.853Z,0.00
2023-05-10T01:20:35.170Z,0.00
2023-05-10T01:21:35.402Z,0.00
2023-05-10T01:22:35.780Z,0.00
2023-05-10T01:23:36.011Z,0.00
2023-05-10T01:24:36.214Z,0.00
2023-05-10T01:25:36.544Z,0.00
2023-05-10T01:26:36.770Z,0.00
2023-05-10T01:27:37.382Z,0.00
2023-05-10T01:28:37.307Z,0.00
2023-05-10T01:29:37.631Z,0.00
2023-05-10T01:30:37.870Z,0.00
2023-05-10T01:31:38.200Z,0.00
2023-05-10T01:32:38.503Z,0.00
2023-05-10T01:33:38.795Z,0.00
2023-05-10T01:34:39.022Z,0.00
2023-05-10T01:35:39.359Z,0.00
2023-05-10T01:36:39.589Z,0.00
2023-05-10T01:37:39.883Z,0.00
2023-05-10T01:38:40.243Z,0.00
2023-05-10T01:39:40.542Z,0.00
2023-05-10T01:40:40.812Z,0.00
2023-05-10T01:41:41.080Z,0.00
2023-05-10T01:42:41.392Z,0.00
2023-05-10T01:43:41.824Z,0.00
2023-05-10T01:44:41.979Z,0.00
2023-05-10T01:45:42.273Z,0.00
2023-05-10T01:46:42.663Z,0.00
2023-05-10T01:47:42.920Z,0.00
2023-05-10T01:48:43.254Z,0.00
2023-05-10T01:49:43.433Z,0.00
2023-05-10T01:50:43.726Z,0.00
2023-05-10T01:51:43.998Z,0.00
2023-05-10T01:52:44.400Z,0.00
2023-05-10T01:53:44.641Z,0.00
2023-05-10T01:54:44.867Z,0.00
2023-05-10T01:55:45.175Z,0.00
2023-05-10T01:56:45.541Z,0.00
2023-05-10T01:57:45.779Z,0.00
2023-05-10T01:58:46.058Z,0.00
2023-05-10T01:59:46.449Z,0.00
2023-05-10T02:00:46.683Z,0.00
2023-05-10T02:01:46.947Z,0.00
2023-05-10T02:02:47.293Z,0.00
2023-05-10T02:03:47.645Z,0.00
2023-05-10T02:04:47.840Z,0.00
2023-05-10T02:05:48.136Z,0.00
2023-05-10T02:06:48.418Z,0.00
2023-05-10T02:07:48.851Z,0.00
2023-05-10T02:08:48.959Z,0.00
2023-05-10T02:09:49.240Z,0.00
2023-05-10T02:10:49.530Z,0.00
2023-05-10T02:11:49.950Z,0.00
2023-05-10T02:12:50.115Z,0.00
2023-05-10T02:13:50.397Z,0.00
2023-05-10T02:14:50.621Z,0.00
2023-05-10T02:15:50.950Z,0.00
2023-05-10T02:16:51.279Z,0.00
2023-05-10T02:17:51.481Z,0.00
2023-05-10T02:18:51.775Z,0.00
2023-05-10T02:19:52.090Z,0.00
2023-05-10T02:20:52.352Z,0.00
2023-05-10T02:21:52.649Z,0.00
2023-05-10T02:22:52.961Z,0.00
2023-05-10T02:23:53.238Z,0.00
2023-05-10T02:24:53.547Z,0.00
2023-05-10T02:25:53.814Z,0.00
2023-05-10T02:26:54.051Z,0.00
2023-05-10T02:27:54.792Z,0.00
2023-05-10T02:28:54.691Z,0.00
2023-05-10T02:29:54.956Z,0.00
2023-05-10T02:30:55.222Z,0.00
2023-05-10T02:31:55.605Z,0.00
2023-05-10T02:32:55.841Z,0.00
2023-05-10T02:33:56.139Z,0.00
2023-05-10T02:34:56.423Z,0.00
2023-05-10T02:35:56.696Z,0.00
2023-05-10T02:36:56.926Z,0.00
2023-05-10T02:37:57.216Z,0.00
2023-05-10T02:38:57.506Z,0.00
2023-05-10T02:39:57.786Z,0.00
2023-05-10T02:40:58.116Z,0.00
2023-05-10T02:41:58.382Z,0.00
2023-05-10T02:42:58.665Z,0.00
2023-05-10T02:43:58.965Z,0.00
2023-05-10T02:44:59.243Z,0.00
2023-05-10T02:45:59.553Z,0.00
2023-05-10T02:46:59.855Z,0.00
2023-05-10T02:48:00.169Z,0.00
2023-05-10T02:49:00.393Z,0.00
2023-05-10T02:50:00.699Z,0.00
2023-05-10T02:51:00.974Z,0.00
2023-05-10T02:52:01.361Z,0.00
2023-05-10T02:53:01.532Z,0.00
2023-05-10T02:54:01.865Z,0.00
2023-05-10T02:55:02.175Z,0.00
2023-05-10T02:56:02.381Z,0.00
2023-05-10T02:57:02.770Z,0.00
2023-05-10T02:58:03.216Z,0.00
2023-05-10T02:59:03.295Z,0.00
2023-05-10T03:00:03.559Z,0.00
2023-05-10T03:01:03.905Z,0.00
2023-05-10T03:02:04.149Z,0.00
2023-05-10T03:03:04.451Z,0.00
2023-05-10T03:04:04.743Z,0.00
2023-05-10T03:05:05.008Z,0.00
2023-05-10T03:06:05.309Z,0.00
2023-05-10T03:07:05.607Z,0.00
2023-05-10T03:08:05.953Z,0.00
2023-05-10T03:09:06.241Z,0.00
2023-05-10T03:10:06.529Z,0.00
2023-05-10T03:11:06.838Z,0.00
2023-05-10T03:12:07.200Z,0.00
2023-05-10T03:13:07.420Z,0.00
2023-05-10T03:14:07.654Z,0.00
2023-05-10T03:15:07.916Z,0.00
2023-05-10T03:16:08.401Z,0.00
2023-05-10T03:17:08.489Z,0.00
2023-05-10T03:18:08.769Z,1.00
2023-05-10T03:19:09.099Z,0.00
2023-05-10T03:20:09.351Z,1.00
2023-05-10T03:21:09.580Z,0.00
2023-05-10T03:22:09.845Z,0.00
2023-05-10T03:23:10.044Z,1.00
2023-05-10T03:24:10.402Z,1.00
2023-05-10T03:25:10.688Z,1.00
2023-05-10T03:26:10.981Z,2.00
2023-05-10T03:27:11.396Z,0.00
2023-05-10T03:28:11.618Z,2.00
2023-05-10T03:29:11.951Z,3.00
2023-05-10T03:30:12.234Z,1.00
2023-05-10T03:31:12.596Z,3.00
2023-05-10T03:32:12.786Z,2.00
2023-05-10T03:33:13.254Z,1.00
2023-05-10T03:34:13.402Z,7.00
2023-05-10T03:35:13.668Z,9.00
2023-05-10T03:36:14.045Z,8.00
2023-05-10T03:37:14.188Z,7.00
2023-05-10T03:38:14.487Z,8.00
2023-05-10T03:39:14.765Z,8.00
2023-05-10T03:40:15.247Z,11.00
2023-05-10T03:41:15.456Z,13.00
2023-05-10T03:42:15.581Z,16.00
2023-05-10T03:43:15.858Z,16.00
2023-05-10T03:44:16.165Z,21.00
2023-05-10T03:45:16.383Z,23.00
2023-05-10T03:46:16.669Z,27.00
2023-05-10T03:47:16.995Z,29.00
2023-05-10T03:48:17.282Z,26.00
2023-05-10T03:49:17.422Z,38.00
2023-05-10T03:50:17.924Z,38.00
2023-05-10T03:51:18.013Z,43.00
2023-05-10T03:52:18.292Z,46.00
2023-05-10T03:53:18.666Z,53.00
2023-05-10T03:54:18.851Z,56.00
2023-05-10T03:55:19.136Z,60.00
2023-05-10T03:56:19.427Z,63.00
2023-05-10T03:57:19.770Z,69.00
2023-05-10T03:58:20.038Z,74.00
2023-05-10T03:59:20.229Z,77.00
2023-05-10T04:00:20.573Z,80.00
2023-05-10T04:01:20.847Z,82.00
2023-05-10T04:02:21.194Z,88.00
2023-05-10T04:03:21.574Z,95.00
2023-05-10T04:04:21.832Z,98.00
2023-05-10T04:05:22.037Z,100.00
2023-05-10T04:06:22.255Z,108.00
2023-05-10T04:07:22.611Z,113.00
2023-05-10T04:08:22.913Z,116.00
2023-05-10T04:09:23.209Z,118.00
2023-05-10T04:10:23.530Z,125.00
2023-05-10T04:11:23.920Z,126.00
2023-05-10T04:12:24.107Z,129.00
2023-05-10T04:13:24.534Z,128.00
2023-05-10T04:14:24.701Z,136.00
2023-05-10T04:15:25.000Z,140.00
2023-05-10T04:16:25.385Z,145.00
2023-05-10T04:17:25.602Z,154.00
2023-05-10T04:18:25.900Z,157.00
2023-05-10T04:19:26.219Z,161.00
2023-05-10T04:20:26.500Z,162.00
2023-05-10T04:21:26.791Z,167.00
2023-05-10T04:22:27.187Z,175.00
2023-05-10T04:23:27.379Z,178.00
2023-05-10T04:24:27.682Z,178.00
2023-05-10T04:25:28.047Z,192.00
2023-05-10T04:26:28.235Z,194.00
2023-05-10T04:27:28.535Z,198.00
2023-05-10T04:28:28.889Z,200.00
2023-05-10T04:29:29.086Z,200.00
2023-05-10T04:30:29.357Z,197.00
2023-05-10T04:31:29.779Z,192.00
2023-05-10T04:32:29.955Z,209.00
2023-05-10T04:33:30.254Z,212.00
2023-05-10T04:34:30.584Z,223.00
2023-05-10T04:35:30.901Z,228.00
2023-05-10T04:36:31.189Z,239.00
2023-05-10T04:37:31.533Z,240.00
2023-05-10T04:38:31.759Z,243.00
2023-05-10T04:39:32.328Z,258.00
2023-05-10T04:40:32.591Z,266.00
2023-05-10T04:41:32.647Z,268.00
2023-05-10T04:42:33.009Z,276.00
2023-05-10T04:43:33.916Z,284.00
2023-05-10T04:44:33.460Z,290.00
2023-05-10T04:45:33.871Z,281.00
2023-05-10T04:46:34.050Z,290.00
2023-05-10T04:47:34.361Z,302.00
2023-05-10T04:48:34.827Z,303.00
2023-05-10T04:49:34.924Z,302.00
2023-05-10T04:50:35.318Z,314.00
2023-05-10T04:51:35.579Z,325.00
2023-05-10T04:52:35.781Z,323.00
2023-05-10T04:53:36.135Z,320.00
2023-05-10T04:54:36.436Z,291.00
2023-05-10T04:55:36.832Z,319.00
2023-05-10T04:56:37.128Z,350.00
2023-05-10T04:57:37.290Z,354.00
2023-05-10T04:58:37.668Z,362.00
2023-05-10T04:59:37.857Z,384.00
2023-05-10T05:00:38.381Z,382.00
2023-05-10T05:01:38.573Z,390.00
2023-05-10T05:02:38.896Z,400.00
2023-05-10T05:03:39.166Z,408.00
2023-05-10T05:04:39.355Z,416.00
2023-05-10T05:05:39.619Z,425.00
2023-05-10T05:06:39.823Z,431.00
2023-05-10T05:07:40.252Z,438.00
2023-05-10T05:08:40.408Z,446.00
2023-05-10T05:09:41.597Z,461.00
2023-05-10T05:10:41.832Z,466.00
2023-05-10T05:11:41.288Z,475.00
2023-05-10T05:12:41.711Z,499.00
2023-05-10T05:13:41.833Z,499.00
2023-05-10T05:14:42.170Z,515.00
2023-05-10T05:15:42.456Z,516.00
2023-05-10T05:16:42.880Z,519.00
2023-05-10T05:17:43.152Z,522.00
2023-05-10T05:18:43.356Z,534.00
2023-05-10T05:19:43.683Z,544.00
2023-05-10T05:20:44.016Z,559.00
2023-05-10T05:21:44.221Z,554.00
2023-05-10T05:22:44.576Z,588.00
2023-05-10T05:23:44.781Z,555.00
2023-05-10T05:24:45.097Z,542.00
2023-05-10T05:25:45.454Z,592.00
2023-05-10T05:26:45.817Z,566.00
2023-05-10T05:27:46.086Z,530.00
2023-05-10T05:28:46.230Z,535.00
2023-05-10T05:29:46.515Z,511.00
2023-05-10T05:30:46.830Z,494.00
2023-05-10T05:31:47.247Z,461.00
2023-05-10T05:32:47.889Z,451.00
2023-05-10T05:33:47.676Z,431.00
2023-05-10T05:34:48.000Z,448.00
2023-05-10T05:35:48.237Z,424.00
2023-05-10T05:36:48.468Z,395.00
2023-05-10T05:37:48.932Z,421.00
2023-05-10T05:38:49.099Z,490.00
2023-05-10T05:39:49.378Z,559.00
2023-05-10T05:40:49.559Z,622.00
2023-05-10T05:41:49.779Z,678.00
2023-05-10T05:42:50.198Z,695.00
2023-05-10T05:43:50.393Z,662.00
2023-05-10T05:44:50.784Z,549.00
2023-05-10T05:45:50.809Z,592.00
2023-05-10T05:46:51.133Z,486.00
2023-05-10T05:47:51.537Z,450.00
2023-05-10T05:48:51.812Z,480.00
2023-05-10T05:49:52.428Z,389.00
2023-05-10T05:50:52.280Z,291.00
2023-05-10T05:51:52.745Z,246.00
2023-05-10T05:52:52.890Z,255.00
2023-05-10T05:53:53.292Z,345.00
2023-05-10T05:54:53.468Z,428.00
2023-05-10T05:55:53.770Z,351.00
2023-05-10T05:56:53.932Z,439.00
2023-05-10T05:57:54.226Z,576.00
2023-05-10T05:58:54.610Z,587.00
2023-05-10T05:59:54.983Z,620.00
2023-05-10T06:00:55.216Z,623.00
2023-05-10T06:01:55.419Z,687.00
2023-05-10T06:02:55.844Z,765.00
2023-05-10T06:03:56.071Z,755.00
2023-05-10T06:04:56.296Z,853.00
2023-05-10T06:05:56.491Z,915.00
2023-05-10T06:06:56.793Z,894.00
2023-05-10T06:07:57.103Z,813.00
2023-05-10T06:08:57.526Z,772.00
2023-05-10T06:09:57.738Z,673.00
2023-05-10T06:10:58.001Z,647.00
2023-05-10T06:11:58.272Z,625.00
2023-05-10T06:12:58.489Z,688.00
2023-05-10T06:13:58.698Z,656.00
2023-05-10T06:14:58.912Z,718.00
2023-05-10T06:15:59.260Z,815.00
2023-05-10T06:16:59.503Z,791.00
2023-05-10T06:17:59.736Z,893.00
2023-05-10T06:19:00.910Z,1008.00
2023-05-10T06:20:00.287Z,1034.00
2023-05-10T06:21:00.622Z,1088.00
2023-05-10T06:22:01.011Z,1107.00
2023-05-10T06:23:01.212Z,1159.00
2023-05-10T06:24:01.634Z,1174.00
2023-05-10T06:25:01.834Z,1163.00
2023-05-10T06:26:02.190Z,1179.00
2023-05-10T06:27:02.602Z,1204.00
2023-05-10T06:28:02.763Z,1220.00
2023-05-10T06:29:03.170Z,1231.00
2023-05-10T06:30:12.313Z,1210.00
2023-05-10T06:31:04.804Z,1213.00
2023-05-10T06:32:04.043Z,1245.00
2023-05-10T06:33:04.302Z,1246.00
2023-05-10T06:34:04.736Z,1269.00
2023-05-10T06:35:04.876Z,1241.00
2023-05-10T06:36:05.296Z,1245.00
2023-05-10T06:37:05.692Z,1198.00
2023-05-10T06:38:05.799Z,1217.00
2023-05-10T06:39:06.138Z,1236.00
2023-05-10T06:40:06.496Z,1239.00
2023-05-10T06:41:06.678Z,1270.00
2023-05-10T06:42:06.967Z,1263.00
2023-05-10T06:43:07.213Z,1310.00
2023-05-10T06:44:07.584Z,1390.00
2023-05-10T06:45:08.756Z,1333.00
2023-05-10T06:46:08.192Z,1308.00
2023-05-10T06:47:08.369Z,1264.00
2023-05-10T06:48:08.684Z,1246.00
2023-05-10T06:49:08.837Z,1204.00
2023-05-10T06:50:09.190Z,1144.00
2023-05-10T06:51:09.652Z,1164.00
2023-05-10T06:52:09.879Z,1177.00
2023-05-10T06:53:10.063Z,1220.00
2023-05-10T06:54:10.279Z,1257.00
2023-05-10T06:55:10.686Z,1308.00
2023-05-10T06:56:10.948Z,1344.00
2023-05-10T06:57:23.402Z,1363.00
2023-05-10T06:58:12.505Z,1478.00
2023-05-10T06:59:11.949Z,1568.00
2023-05-10T07:00:12.103Z,1704.00
2023-05-10T07:01:12.388Z,1718.00
2023-05-10T07:02:12.668Z,1767.00
2023-05-10T07:03:12.971Z,1845.00
2023-05-10T07:04:13.138Z,1846.00
2023-05-10T07:05:13.450Z,1887.00
2023-05-10T07:06:29.485Z,1877.00
2023-05-10T07:07:15.035Z,1884.00
2023-05-10T07:08:14.333Z,1791.00
2023-05-10T07:09:14.684Z,1794.00
2023-05-10T07:10:15.896Z,1722.00
2023-05-10T07:11:15.156Z,1703.00
2023-05-10T07:12:16.017Z,1644.00
2023-05-10T07:13:15.721Z,1649.00
2023-05-10T07:14:16.319Z,1589.00
2023-05-10T07:15:16.429Z,1623.00
2023-05-10T07:16:16.868Z,1627.00
2023-05-10T07:17:16.822Z,1752.00
2023-05-10T07:18:17.141Z,1837.00
2023-05-10T07:19:17.366Z,1938.00
2023-05-10T07:20:17.570Z,2016.00
2023-05-10T07:21:17.993Z,2011.00
2023-05-10T07:22:18.234Z,2165.00
2023-05-10T07:23:18.517Z,2198.00
2023-05-10T07:24:18.816Z,2242.00
2023-05-10T07:25:19.247Z,2181.00
2023-05-10T07:26:19.442Z,2222.00
2023-05-10T07:27:19.614Z,2145.00
2023-05-10T07:28:19.992Z,2212.00
2023-05-10T07:29:20.246Z,2212.00
2023-05-10T07:30:20.480Z,2220.00
2023-05-10T07:31:20.894Z,2291.00
2023-05-10T07:32:21.168Z,2239.00
2023-05-10T07:33:21.514Z,2285.00
2023-05-10T07:34:21.801Z,2273.00
2023-05-10T07:35:22.093Z,2326.00
2023-05-10T07:36:22.266Z,2272.00
2023-05-10T07:37:22.714Z,2228.00
2023-05-10T07:38:22.970Z,2207.00
2023-05-10T07:39:27.630Z,2285.00
2023-05-10T07:40:23.465Z,2182.00
2023-05-10T07:41:23.738Z,2166.00
2023-05-10T07:42:23.935Z,2188.00
2023-05-10T07:43:24.251Z,2131.00
2023-05-10T07:44:24.680Z,2199.00
2023-05-10T07:45:24.911Z,2228.00
2023-05-10T07:46:25.137Z,2201.00
2023-05-10T07:47:25.466Z,2246.00
2023-05-10T07:48:25.716Z,2200.00
2023-05-10T07:49:26.015Z,2105.00
2023-05-10T07:50:26.340Z,2157.00
2023-05-10T07:51:26.496Z,2232.00
2023-05-10T07:52:26.963Z,1996.00
2023-05-10T07:53:27.174Z,2001.00
2023-05-10T07:54:27.381Z,1788.00
2023-05-10T07:55:27.709Z,1794.00
2023-05-10T07:56:27.882Z,1674.00
2023-05-10T07:57:28.670Z,1761.00
2023-05-10T07:58:28.444Z,1910.00
2023-05-10T07:59:28.729Z,1959.00
2023-05-10T08:00:29.077Z,1702.00
2023-05-10T08:01:29.403Z,1545.00
2023-05-10T08:02:29.962Z,1649.00
2023-05-10T08:03:30.135Z,1689.00
2023-05-10T08:04:30.403Z,1436.00
2023-05-10T08:05:30.728Z,1377.00
2023-05-10T08:06:31.188Z,1055.00
2023-05-10T08:07:31.403Z,1052.00
2023-05-10T08:08:31.585Z,1085.00
2023-05-10T08:09:31.725Z,1110.00
2023-05-10T08:10:32.090Z,1125.00
2023-05-10T08:11:33.705Z,1216.00
2023-05-10T08:12:32.664Z,1621.00
2023-05-10T08:13:32.924Z,1569.00
2023-05-10T08:14:33.082Z,1319.00
2023-05-10T08:15:33.545Z,1206.00
2023-05-10T08:16:34.602Z,1245.00
2023-05-10T08:17:33.945Z,1671.00
2023-05-10T08:18:34.357Z,1999.00
2023-05-10T08:19:34.570Z,2141.00
2023-05-10T08:20:34.763Z,2205.00
2023-05-10T08:21:35.085Z,2380.00
2023-05-10T08:22:35.513Z,2520.00
2023-05-10T08:23:35.687Z,2545.00
2023-05-10T08:24:36.016Z,2825.00
2023-05-10T08:25:37.217Z,3304.00
2023-05-10T08:26:36.645Z,2952.00
2023-05-10T08:27:36.947Z,2768.00
2023-05-10T08:28:38.122Z,2460.00
2023-05-10T08:29:48.984Z,2009.00
2023-05-10T08:30:38.831Z,1660.00
2023-05-10T08:31:38.066Z,1207.00
2023-05-10T08:32:39.622Z,1103.00
2023-05-10T08:33:38.734Z,1137.00
2023-05-10T08:34:38.902Z,1283.00
2023-05-10T08:35:39.222Z,1359.00
2023-05-10T08:36:39.712Z,1425.00
2023-05-10T08:37:39.855Z,1290.00
2023-05-10T08:38:40.135Z,1106.00
2023-05-10T08:39:40.400Z,831.00
2023-05-10T08:40:40.662Z,599.00
2023-05-10T08:41:41.105Z,514.00
2023-05-10T08:42:41.140Z,561.00
2023-05-10T08:43:41.586Z,679.00
2023-05-10T08:44:41.703Z,782.00
2023-05-10T08:45:42.039Z,841.00
2023-05-10T08:46:42.412Z,806.00
2023-05-10T08:47:42.734Z,967.00
2023-05-10T08:48:42.874Z,1059.00
2023-05-10T08:49:44.197Z,1345.00
2023-05-10T08:50:43.501Z,1256.00
2023-05-10T08:51:44.247Z,1052.00
2023-05-10T08:52:44.314Z,1018.00
2023-05-10T08:53:44.427Z,886.00
2023-05-10T08:54:44.613Z,745.00
2023-05-10T08:55:44.899Z,583.00
2023-05-10T08:56:45.167Z,500.00
2023-05-10T08:57:45.423Z,508.00
2023-05-10T08:58:45.670Z,817.00
2023-05-10T08:59:45.839Z,944.00
2023-05-10T09:00:46.177Z,1015.00
2023-05-10T09:01:46.418Z,1013.00
2023-05-10T09:02:46.707Z,741.00
2023-05-10T09:03:46.945Z,560.00
2023-05-10T09:04:47.377Z,380.00
2023-05-10T09:05:48.524Z,339.00
2023-05-10T09:06:47.873Z,469.00
2023-05-10T09:07:48.219Z,557.00
2023-05-10T09:08:48.508Z,500.00
2023-05-10T09:09:48.743Z,405.00
2023-05-10T09:10:48.967Z,424.00
2023-05-10T09:11:49.339Z,519.00
2023-05-10T09:12:49.683Z,650.00
2023-05-10T09:13:49.881Z,622.00
2023-05-10T09:14:50.298Z,581.00
2023-05-10T09:15:50.512Z,665.00
2023-05-10T09:16:50.912Z,773.00
2023-05-10T09:17:51.135Z,935.00
2023-05-10T09:18:52.331Z,1111.00
2023-05-10T09:19:51.682Z,1222.00
2023-05-10T09:20:52.034Z,1423.00
2023-05-10T09:21:52.305Z,1562.00
2023-05-10T09:22:52.506Z,1833.00
2023-05-10T09:23:52.718Z,1994.00
2023-05-10T09:24:53.041Z,2164.00
2023-05-10T09:25:53.372Z,2275.00
2023-05-10T09:26:53.713Z,2474.00
2023-05-10T09:27:54.029Z,2621.00
2023-05-10T09:28:54.251Z,2736.00
2023-05-10T09:29:54.455Z,3167.00
2023-05-10T09:30:54.967Z,3379.00
2023-05-10T09:31:55.284Z,3604.00
2023-05-10T09:32:55.545Z,3493.00
2023-05-10T09:33:55.715Z,3491.00
2023-05-10T09:34:56.062Z,3273.00
2023-05-10T09:35:56.470Z,3172.00
2023-05-10T09:36:56.682Z,2473.00
2023-05-10T09:37:57.007Z,2286.00
2023-05-10T09:38:57.167Z,2082.00
2023-05-10T09:39:57.526Z,1834.00
2023-05-10T09:40:57.800Z,1238.00
2023-05-10T09:41:58.082Z,866.00
2023-05-10T09:42:58.285Z,689.00
2023-05-10T09:43:58.567Z,569.00
2023-05-10T09:44:58.758Z,531.00
2023-05-10T09:45:59.137Z,559.00
2023-05-10T09:46:59.318Z,589.00
2023-05-10T09:47:59.847Z,669.00
2023-05-10T09:48:59.993Z,730.00
2023-05-10T09:50:00.440Z,810.00
2023-05-10T09:51:00.661Z,821.00
2023-05-10T09:52:00.976Z,871.00
2023-05-10T09:53:01.446Z,923.00
2023-05-10T09:54:01.594Z,995.00
2023-05-10T09:55:01.962Z,1129.00
2023-05-10T09:56:02.239Z,1199.00
2023-05-10T09:57:02.489Z,1298.00
2023-05-10T09:58:02.819Z,1378.00
2023-05-10T09:59:03.020Z,1384.00
2023-05-10T10:00:03.429Z,1409.00
2023-05-10T10:01:03.678Z,1489.00
2023-05-10T10:02:03.969Z,1450.00
2023-05-10T10:03:04.258Z,1480.00
2023-05-10T10:04:04.629Z,1497.00
2023-05-10T10:05:05.103Z,1532.00
2023-05-10T10:06:05.298Z,1596.00
2023-05-10T10:07:05.472Z,1714.00
2023-05-10T10:08:05.714Z,1909.00
2023-05-10T10:09:05.923Z,2064.00
2023-05-10T10:10:06.176Z,2123.00
2023-05-10T10:11:06.602Z,2189.00
2023-05-10T10:12:07.809Z,2173.00
2023-05-10T10:13:07.138Z,2207.00
2023-05-10T10:14:07.345Z,2148.00
2023-05-10T10:15:07.918Z,2250.00
2023-05-10T10:16:08.109Z,2115.00
2023-05-10T10:17:09.083Z,2216.00
2023-05-10T10:18:09.071Z,2391.00
2023-05-10T10:19:09.495Z,2862.00
2023-05-10T10:20:11.722Z,2041.00
2023-05-10T10:21:09.582Z,4812.00
2023-05-10T10:22:09.754Z,3419.00
2023-05-10T10:23:10.504Z,2405.00
2023-05-10T10:24:10.477Z,2379.00
2023-05-10T10:25:10.668Z,2915.00
2023-05-10T10:26:11.055Z,3692.00
2023-05-10T10:27:11.167Z,7761.00
2023-05-10T10:28:11.549Z,13008.00
2023-05-10T10:29:11.734Z,8217.00
2023-05-10T10:30:12.155Z,5047.00
2023-05-10T10:31:12.478Z,2905.00
2023-05-10T10:32:13.517Z,2898.00
2023-05-10T10:33:20.624Z,2861.00
2023-05-10T10:34:14.079Z,3136.00
2023-05-10T10:35:13.386Z,3353.00
2023-05-10T10:36:13.774Z,3774.00
2023-05-10T10:37:14.023Z,4251.00
2023-05-10T10:38:14.265Z,4004.00
2023-05-10T10:39:14.686Z,4029.00
2023-05-10T10:40:14.982Z,3852.00
2023-05-10T10:41:15.296Z,4051.00
2023-05-10T10:42:15.464Z,4005.00
2023-05-10T10:43:15.676Z,4388.00
2023-05-10T10:44:16.018Z,4643.00
2023-05-10T10:45:16.486Z,4891.00
2023-05-10T10:46:17.100Z,4550.00
2023-05-10T10:47:16.759Z,9832.00
2023-05-10T10:48:17.107Z,8677.00
2023-05-10T10:49:17.453Z,6573.00
2023-05-10T10:50:17.687Z,9391.00
2023-05-10T10:51:18.095Z,9164.00
2023-05-10T10:52:18.290Z,7371.00
2023-05-10T10:53:18.582Z,16338.00
2023-05-10T10:54:18.784Z,7359.00
2023-05-10T10:55:19.617Z,15254.00
2023-05-10T10:56:19.424Z,14433.00
2023-05-10T10:57:19.746Z,13952.00
2023-05-10T10:58:20.035Z,13968.00
2023-05-10T10:59:20.502Z,14239.00
2023-05-10T11:00:20.683Z,12710.00
2023-05-10T11:01:20.942Z,13815.00
2023-05-10T11:02:21.128Z,13072.00
2023-05-10T11:03:21.520Z,12791.00
2023-05-10T11:04:21.785Z,10134.00
2023-05-10T11:05:22.065Z,10342.00
2023-05-10T11:06:22.323Z,12023.00
2023-05-10T11:07:22.493Z,8764.00
2023-05-10T11:08:23.015Z,11682.00
2023-05-10T11:09:23.150Z,9608.00
2023-05-10T11:10:23.585Z,13599.00
2023-05-10T11:11:23.964Z,13331.00
2023-05-10T11:12:24.044Z,13131.00
2023-05-10T11:13:24.299Z,13206.00
2023-05-10T11:14:24.505Z,13373.00
2023-05-10T11:15:24.890Z,13516.00
2023-05-10T11:16:25.285Z,14018.00
2023-05-10T11:17:25.578Z,16415.00
2023-05-10T11:18:25.842Z,15638.00
2023-05-10T11:19:26.954Z,15477.00
2023-05-10T11:20:26.276Z,16280.00
2023-05-10T11:21:26.591Z,16811.00
2023-05-10T11:22:27.324Z,15165.00
2023-05-10T11:23:27.988Z,18672.00
2023-05-10T11:24:27.504Z,8498.00
2023-05-10T11:25:27.853Z,15158.00
2023-05-10T11:26:27.987Z,16110.00
2023-05-10T11:27:28.348Z,18385.00
2023-05-10T11:28:28.643Z,18966.00
2023-05-10T11:29:28.882Z,19666.00
2023-05-10T11:30:29.111Z,16592.00
2023-05-10T11:31:29.578Z,12308.00
2023-05-10T11:32:29.760Z,10016.00
2023-05-10T11:33:30.043Z,16280.00
2023-05-10T11:34:30.283Z,17990.00
2023-05-10T11:35:30.527Z,18468.00
2023-05-10T11:36:30.805Z,16360.00
2023-05-10T11:37:31.134Z,11672.00
2023-05-10T11:38:31.350Z,11464.00
2023-05-10T11:39:31.574Z,9865.00
2023-05-10T11:40:31.953Z,10532.00
2023-05-10T11:41:32.170Z,9751.00
2023-05-10T11:42:32.522Z,9358.00
2023-05-10T11:43:32.809Z,11752.00
2023-05-10T11:44:32.974Z,6758.00
2023-05-10T11:45:33.410Z,9452.00
2023-05-10T11:46:33.732Z,7255.00
2023-05-10T11:47:33.984Z,5320.00
2023-05-10T11:48:34.142Z,6530.00
2023-05-10T11:49:34.545Z,8705.00
2023-05-10T11:50:34.878Z,8516.00
2023-05-10T11:51:35.035Z,7779.00
2023-05-10T11:52:35.331Z,5420.00
2023-05-10T11:53:35.694Z,4495.00
2023-05-10T11:54:35.882Z,3921.00
2023-05-10T11:55:36.138Z,4680.00
2023-05-10T11:56:36.342Z,3404.00
2023-05-10T11:57:36.920Z,2749.00
2023-05-10T11:58:36.946Z,2929.00
2023-05-10T11:59:37.249Z,2419.00
2023-05-10T12:00:38.535Z,2298.00
2023-05-10T12:01:37.954Z,2254.00
2023-05-10T12:02:38.303Z,2548.00
2023-05-10T12:03:38.703Z,2499.00
2023-05-10T12:04:38.943Z,3217.00
2023-05-10T12:05:39.734Z,3103.00
2023-05-10T12:06:39.344Z,2762.00
2023-05-10T12:07:39.718Z,2676.00
2023-05-10T12:08:40.371Z,2755.00
2023-05-10T12:09:44.125Z,2671.00
2023-05-10T12:10:40.657Z,2642.00
2023-05-10T12:11:43.528Z,2479.00
2023-05-10T12:12:41.123Z,2646.00
2023-05-10T12:13:41.438Z,3023.00
2023-05-10T12:14:41.812Z,3602.00
2023-05-10T12:15:42.069Z,3840.00
2023-05-10T12:16:43.277Z,4427.00
2023-05-10T12:17:43.541Z,4438.00
2023-05-10T12:18:42.857Z,4775.00
2023-05-10T12:19:43.217Z,5023.00
2023-05-10T12:20:43.403Z,4539.00
2023-05-10T12:21:43.733Z,5089.00
2023-05-10T12:22:44.122Z,4788.00
2023-05-10T12:23:44.370Z,4766.00
2023-05-10T12:24:44.748Z,4258.00
2023-05-10T12:25:44.969Z,4864.00
2023-05-10T12:26:45.164Z,4944.00
2023-05-10T12:27:45.443Z,4869.00
2023-05-10T12:28:45.639Z,4758.00
2023-05-10T12:29:45.942Z,5033.00
2023-05-10T12:30:46.280Z,4540.00
2023-05-10T12:31:46.533Z,4821.00
2023-05-10T12:32:46.826Z,4580.00
2023-05-10T12:33:47.101Z,4979.00
2023-05-10T12:34:47.300Z,5275.00
2023-05-10T12:35:47.573Z,5867.00
2023-05-10T12:36:48.768Z,5614.00
2023-05-10T12:37:48.186Z,5252.00
2023-05-10T12:38:48.561Z,4723.00